createdAt,value
2018-12-01T00:02:17.277Z,99658.55
2018-12-01T00:04:44.612Z,99657.79
2018-12-01T00:07:12.439Z,99654.05
2018-12-01T00:09:40.313Z,99654.52
2018-12-01T00:12:09.082Z,99654.97
2018-12-01T00:14:36.376Z,99650.52
2018-12-01T00:17:04.924Z,99651.33
2018-12-01T00:19:32.231Z,99651.32
2018-12-01T00:21:59.552Z,99653.82
2018-12-01T00:24:27.300Z,99646.92
2018-12-01T00:26:57.644Z,99654.47
2018-12-01T00:29:25.004Z,99645.64
2018-12-01T00:31:52.726Z,99652.88
2018-12-01T00:34:20.055Z,99653.08
2018-12-01T00:36:47.372Z,99652.35
2018-12-01T00:39:14.667Z,99651.89
2018-12-01T00:41:42.283Z,99646.19
2018-12-01T00:44:10.262Z,99648.48
2018-12-01T00:46:37.608Z,99653.31
2018-12-01T00:49:06.637Z,99649.80
2018-12-01T00:51:38.540Z,99651.89
2018-12-01T00:54:06.040Z,99652.61
2018-12-01T00:56:33.494Z,99649.96
2018-12-01T00:59:01.498Z,99650.92
2018-12-01T01:01:28.800Z,99658.02
2018-12-01T01:03:57.300Z,99665.45
2018-12-01T01:06:24.680Z,99666.55
2018-12-01T01:08:52.435Z,99661.35
2018-12-01T01:11:21.567Z,99671.46
2018-12-01T01:13:48.902Z,99668.80
2018-12-01T01:16:16.315Z,99666.76
2018-12-01T01:18:44.372Z,99660.83
2018-12-01T01:21:11.709Z,99662.92
2018-12-01T01:23:39.049Z,99663.41
2018-12-01T01:26:06.372Z,99660.55
2018-12-01T01:28:34.172Z,99660.91
2018-12-01T01:31:01.471Z,99669.43
2018-12-01T01:33:28.892Z,99658.70
2018-12-01T01:35:56.500Z,99660.73
2018-12-01T01:38:23.849Z,99654.34
2018-12-01T01:40:56.412Z,99662.50
2018-12-01T01:43:24.512Z,99659.22
2018-12-01T01:45:52.332Z,99664.97
2018-12-01T01:48:19.696Z,99663.15
2018-12-01T01:50:47.024Z,99664.94
2018-12-01T01:53:14.762Z,99660.70
2018-12-01T01:55:42.072Z,99662.16
2018-12-01T01:58:09.405Z,99659.71
2018-12-01T02:00:36.776Z,99658.89
2018-12-01T02:03:04.446Z,99659.09
2018-12-01T02:05:31.769Z,99656.30
2018-12-01T02:07:59.084Z,99658.80
2018-12-01T02:10:26.441Z,99651.91
2018-12-01T02:12:54.175Z,99648.80
2018-12-01T02:15:21.512Z,99645.28
2018-12-01T02:17:48.861Z,99644.92
2018-12-01T02:20:16.259Z,99646.74
2018-12-01T02:22:43.562Z,99641.08
2018-12-01T02:25:10.890Z,99649.59
2018-12-01T02:27:38.235Z,99645.75
2018-12-01T02:30:06.346Z,99644.52
2018-12-01T02:32:33.721Z,99646.31
2018-12-01T02:35:01.088Z,99647.27
2018-12-01T02:37:28.419Z,99646.81
2018-12-01T02:39:56.470Z,99641.52
2018-12-01T02:42:24.561Z,99644.52
2018-12-01T02:44:51.983Z,99645.52
2018-12-01T02:47:19.328Z,99652.17
2018-12-01T02:49:47.114Z,99642.36
2018-12-01T02:52:14.450Z,99647.09
2018-12-01T02:54:41.780Z,99651.84
2018-12-01T02:57:09.099Z,99650.91
2018-12-01T02:59:36.913Z,99650.47
2018-12-01T03:02:04.269Z,99650.85
2018-12-01T03:04:31.606Z,99648.36
2018-12-01T03:06:58.946Z,99648.98
2018-12-01T03:09:26.718Z,99641.64
2018-12-01T03:11:54.043Z,99637.92
2018-12-01T03:14:22.255Z,99643.81
2018-12-01T03:16:50.283Z,99633.96
2018-12-01T03:19:19.241Z,99637.44
2018-12-01T03:21:47.544Z,99635.05
2018-12-01T03:24:14.875Z,99630.96
2018-12-01T03:26:42.607Z,99627.74
2018-12-01T03:29:10.027Z,99627.14
2018-12-01T03:31:37.354Z,99630.05
2018-12-01T03:34:05.915Z,99635.24
2018-12-01T03:36:33.255Z,99627.41
2018-12-01T03:39:00.594Z,99631.17
2018-12-01T03:41:27.935Z,99636.23
2018-12-01T03:43:55.660Z,99630.82
2018-12-01T03:46:22.996Z,99630.21
2018-12-01T03:48:50.305Z,99635.41
2018-12-01T03:51:17.696Z,99632.41
2018-12-01T03:53:48.042Z,99638.53
2018-12-01T03:56:15.340Z,99631.28
2018-12-01T03:58:42.638Z,99631.42
2018-12-01T04:01:10.263Z,99634.03
2018-12-01T04:03:38.582Z,99641.52
2018-12-01T04:06:05.877Z,99630.39
2018-12-01T04:08:33.208Z,99639.88
2018-12-01T04:11:00.861Z,99640.84
2018-12-01T04:13:28.167Z,99646.62
2018-12-01T04:15:55.502Z,99647.94
2018-12-01T04:18:22.824Z,99642.02
2018-12-01T04:20:51.059Z,99650.95
2018-12-01T04:23:18.487Z,99645.84
2018-12-01T04:25:45.771Z,99647.78
2018-12-01T04:28:13.128Z,99651.16
2018-12-01T04:30:40.766Z,99653.46
2018-12-01T04:33:08.140Z,99658.66
2018-12-01T04:35:35.468Z,99656.27
2018-12-01T04:38:02.852Z,99653.01
2018-12-01T04:40:30.636Z,99658.17
2018-12-01T04:42:59.872Z,99660.83
2018-12-01T04:45:27.218Z,99653.38
2018-12-01T04:47:55.159Z,99660.97
2018-12-01T04:50:22.483Z,99658.06
2018-12-01T04:52:49.818Z,99665.16
2018-12-01T04:55:17.203Z,99663.47
2018-12-01T04:57:44.901Z,99668.41
2018-12-01T05:00:12.187Z,99665.14
2018-12-01T05:02:39.596Z,99668.76
2018-12-01T05:05:06.897Z,99672.48
2018-12-01T05:07:34.459Z,99670.90
2018-12-01T05:10:01.785Z,99683.44
2018-12-01T05:12:29.133Z,99692.56
2018-12-01T05:14:56.479Z,99697.97
2018-12-01T05:17:24.205Z,99701.09
2018-12-01T05:19:51.587Z,99704.00
2018-12-01T05:22:18.883Z,99702.86
2018-12-01T05:24:46.176Z,99703.48
2018-12-01T05:27:13.831Z,99689.62
2018-12-01T05:29:41.194Z,99685.40
2018-12-01T05:32:08.479Z,99687.09
2018-12-01T05:34:35.803Z,99678.77
2018-12-01T05:37:06.459Z,99689.62
2018-12-01T05:39:33.809Z,99688.53
2018-12-01T05:42:01.124Z,99693.75
2018-12-01T05:44:28.491Z,99689.75
2018-12-01T05:46:56.280Z,99695.03
2018-12-01T05:49:23.584Z,99696.70
2018-12-01T05:51:50.916Z,99698.13
2018-12-01T05:54:18.668Z,99698.03
2018-12-01T05:56:45.984Z,99700.44
2018-12-01T05:59:13.273Z,99698.91
2018-12-01T06:01:40.583Z,99689.99
2018-12-01T06:04:08.391Z,99691.52
2018-12-01T06:06:35.695Z,99699.81
2018-12-01T06:09:03.092Z,99695.58
2018-12-01T06:11:30.436Z,99702.37
2018-12-01T06:13:58.182Z,99694.52
2018-12-01T06:16:25.519Z,99708.63
2018-12-01T06:18:52.825Z,99702.00
2018-12-01T06:21:20.151Z,99706.34
2018-12-01T06:23:47.445Z,99704.42
2018-12-01T06:26:15.703Z,99698.16
2018-12-01T06:28:43.021Z,99693.71
2018-12-01T06:31:10.775Z,99697.45
2018-12-01T06:33:38.072Z,99684.80
2018-12-01T06:36:05.402Z,99693.34
2018-12-01T06:38:34.051Z,99686.92
2018-12-01T06:41:01.421Z,99682.82
2018-12-01T06:43:28.749Z,99681.84
2018-12-01T06:45:56.390Z,99676.88
2018-12-01T06:48:23.723Z,99679.98
2018-12-01T06:50:52.163Z,99674.69
2018-12-01T06:53:21.013Z,99675.65
2018-12-01T06:55:48.338Z,99678.50
2018-12-01T06:58:15.692Z,99677.31
2018-12-01T07:00:43.032Z,99677.41
2018-12-01T07:03:10.843Z,99686.80
2018-12-01T07:05:38.179Z,99696.56
2018-12-01T07:08:05.540Z,99693.58
2018-12-01T07:10:33.199Z,99702.52
2018-12-01T07:13:00.580Z,99703.15
2018-12-01T07:15:29.006Z,99704.73
2018-12-01T07:17:56.853Z,99697.88
2018-12-01T07:20:24.203Z,99697.77
2018-12-01T07:22:51.507Z,99697.66
2018-12-01T07:25:19.275Z,99692.12
2018-12-01T07:27:46.571Z,99701.17
2018-12-01T07:30:13.877Z,99693.01
2018-12-01T07:32:41.657Z,99691.69
2018-12-01T07:35:09.256Z,99689.63
2018-12-01T07:37:37.269Z,99691.32
2018-12-01T07:40:05.730Z,99690.36
2018-12-01T07:42:33.083Z,99700.62
2018-12-01T07:45:00.393Z,99690.27
2018-12-01T07:47:28.460Z,99694.14
2018-12-01T07:49:55.842Z,99693.89
2018-12-01T07:52:23.239Z,99692.05
2018-12-01T07:54:50.978Z,99700.34
2018-12-01T07:57:18.316Z,99702.13
2018-12-01T07:59:45.646Z,99690.20
2018-12-01T08:02:13.438Z,99691.42
2018-12-01T08:04:40.820Z,99691.44
2018-12-01T08:07:09.227Z,99683.64
2018-12-01T08:09:39.277Z,99682.73
2018-12-01T08:12:06.679Z,99679.52
2018-12-01T08:14:34.068Z,99673.01
2018-12-01T08:17:02.590Z,99680.27
2018-12-01T08:19:29.951Z,99677.26
2018-12-01T08:21:57.311Z,99668.48
2018-12-01T08:24:24.616Z,99669.35
2018-12-01T08:26:51.947Z,99663.55
2018-12-01T08:29:20.391Z,99671.77
2018-12-01T08:31:48.366Z,99659.87
2018-12-01T08:34:15.716Z,99663.86
2018-12-01T08:36:43.595Z,99664.94
2018-12-01T08:39:12.282Z,99659.27
2018-12-01T08:41:39.628Z,99657.22
2018-12-01T08:44:07.359Z,99662.67
2018-12-01T08:46:34.781Z,99663.03
2018-12-01T08:49:02.218Z,99665.08
2018-12-01T08:51:29.862Z,99675.70
2018-12-01T08:53:57.240Z,99672.33
2018-12-01T08:56:24.613Z,99676.81
2018-12-01T08:58:52.251Z,99669.92
2018-12-01T09:01:19.575Z,99669.78
2018-12-01T09:03:46.979Z,99678.25
2018-12-01T09:06:14.621Z,99672.44
2018-12-01T09:08:41.963Z,99677.64
2018-12-01T09:11:09.335Z,99682.70
2018-12-01T09:13:37.693Z,99686.69
2018-12-01T09:16:05.017Z,99697.09
2018-12-01T09:18:32.319Z,99695.30
2018-12-01T09:21:01.342Z,99694.93
2018-12-01T09:23:29.395Z,99698.33
2018-12-01T09:25:56.787Z,99692.89
2018-12-01T09:28:25.087Z,99690.36
2018-12-01T09:30:53.463Z,99685.02
2018-12-01T09:33:21.458Z,99677.63
2018-12-01T09:35:49.283Z,99693.81
2018-12-01T09:38:16.607Z,99691.64
2018-12-01T09:40:44.841Z,99700.42
2018-12-01T09:43:13.342Z,99689.84
2018-12-01T09:45:40.644Z,99691.80
2018-12-01T09:48:07.976Z,99696.41
2018-12-01T09:50:36.487Z,99688.33
2018-12-01T09:53:04.651Z,99688.10
2018-12-01T09:55:31.991Z,99687.65
2018-12-01T09:57:59.585Z,99688.20
2018-12-01T10:00:27.821Z,99675.12
2018-12-01T10:02:55.300Z,99653.69
2018-12-01T10:05:23.790Z,99653.39
2018-12-01T10:07:51.364Z,99646.04
2018-12-01T10:10:19.411Z,99649.25
2018-12-01T10:12:47.060Z,99655.86
2018-12-01T10:15:14.766Z,99657.53
2018-12-01T10:17:42.205Z,99648.38
2018-12-01T10:20:11.695Z,99641.01
2018-12-01T10:22:39.032Z,99633.81
2018-12-01T10:25:06.370Z,99624.74
2018-12-01T10:27:34.007Z,99629.55
2018-12-01T10:30:01.446Z,99609.60
2018-12-01T10:32:28.846Z,99605.80
2018-12-01T10:34:56.628Z,99606.24
2018-12-01T10:37:23.991Z,99603.73
2018-12-01T10:39:52.007Z,99603.29
2018-12-01T10:42:20.447Z,99598.40
2018-12-01T10:44:47.743Z,99581.94
2018-12-01T10:47:15.049Z,99579.34
2018-12-01T10:49:43.384Z,99581.20
2018-12-01T10:52:10.699Z,99586.52
2018-12-01T10:54:38.047Z,99583.25
2018-12-01T10:57:06.535Z,99581.70
2018-12-01T10:59:35.027Z,99587.01
2018-12-01T11:02:07.510Z,99579.80
2018-12-01T11:04:40.890Z,99598.54
2018-12-01T11:07:08.262Z,99603.09
2018-12-01T11:09:36.215Z,99607.88
2018-12-01T11:12:05.035Z,99603.26
2018-12-01T11:14:32.366Z,99602.99
2018-12-01T11:17:00.328Z,99607.17
2018-12-01T11:19:29.020Z,99602.32
2018-12-01T11:21:56.385Z,99607.26
2018-12-01T11:24:23.708Z,99609.06
2018-12-01T11:26:51.434Z,99600.88
2018-12-01T11:29:18.768Z,99607.95
2018-12-01T11:31:46.115Z,99609.00
2018-12-01T11:34:13.757Z,99600.02
2018-12-01T11:36:41.114Z,99601.83
2018-12-01T11:39:08.490Z,99600.42
2018-12-01T11:41:36.251Z,99599.32
2018-12-01T11:44:04.235Z,99597.40
2018-12-01T11:46:31.575Z,99591.45
2018-12-01T11:48:59.443Z,99584.56
2018-12-01T11:51:27.352Z,99588.57
2018-12-01T11:53:54.691Z,99584.78
2018-12-01T11:56:22.502Z,99573.80
2018-12-01T11:58:49.839Z,99562.51
2018-12-01T12:01:17.224Z,99569.44
2018-12-01T12:03:45.036Z,99559.83
2018-12-01T12:06:12.423Z,99569.35
2018-12-01T12:08:39.724Z,99555.62
2018-12-01T12:11:07.502Z,99538.39
2018-12-01T12:13:35.715Z,99551.22
2018-12-01T12:16:03.036Z,99548.68
2018-12-01T12:18:30.643Z,99547.09
2018-12-01T12:20:58.956Z,99539.20
2018-12-01T12:23:26.338Z,99540.97
2018-12-01T12:25:54.965Z,99535.12
2018-12-01T12:28:22.297Z,99519.09
2018-12-01T12:30:50.215Z,99520.24
2018-12-01T12:33:17.928Z,99521.91
2018-12-01T12:35:45.328Z,99515.77
2018-12-01T12:38:12.668Z,99513.63
2018-12-01T12:40:40.511Z,99514.50
2018-12-01T12:43:07.815Z,99523.39
2018-12-01T12:45:35.956Z,99505.86
2018-12-01T12:48:03.620Z,99512.28
2018-12-01T12:50:31.930Z,99512.75
2018-12-01T12:53:00.539Z,99510.25
2018-12-01T12:55:27.847Z,99512.40
2018-12-01T12:57:55.173Z,99508.56
2018-12-01T13:00:23.305Z,99511.58
2018-12-01T13:02:50.654Z,99501.75
2018-12-01T13:05:18.815Z,99497.30
2018-12-01T13:07:47.661Z,99490.99
2018-12-01T13:10:15.355Z,99490.36
2018-12-01T13:12:42.741Z,99489.89
2018-12-01T13:15:11.739Z,99488.79
2018-12-01T13:17:39.054Z,99494.46
2018-12-01T13:20:06.336Z,99495.52
2018-12-01T13:22:34.153Z,99486.55
2018-12-01T13:25:02.221Z,99484.24
2018-12-01T13:27:29.640Z,99479.77
2018-12-01T13:29:57.255Z,99481.97
2018-12-01T13:32:25.123Z,99467.33
2018-12-01T13:34:53.739Z,99465.14
2018-12-01T13:37:21.545Z,99463.33
2018-12-01T13:39:48.835Z,99465.61
2018-12-01T13:42:16.923Z,99463.58
2018-12-01T13:44:44.659Z,99462.25
2018-12-01T13:47:12.001Z,99461.89
2018-12-01T13:49:39.397Z,99468.20
2018-12-01T13:52:07.719Z,99470.52
2018-12-01T13:54:38.740Z,99468.83
2018-12-01T13:57:07.715Z,99460.49
2018-12-01T13:59:36.063Z,99464.95
2018-12-01T14:02:03.397Z,99458.30
2018-12-01T14:04:30.699Z,99447.94
2018-12-01T14:06:58.469Z,99452.41
2018-12-01T14:09:25.819Z,99449.16
2018-12-01T14:11:54.820Z,99437.31
2018-12-01T14:14:22.463Z,99450.27
2018-12-01T14:16:49.790Z,99441.70
2018-12-01T14:19:17.934Z,99445.97
2018-12-01T14:21:45.691Z,99451.53
2018-12-01T14:24:13.015Z,99443.95
2018-12-01T14:26:40.816Z,99443.75
2018-12-01T14:29:08.547Z,99452.09
2018-12-01T14:31:37.456Z,99450.53
2018-12-01T14:34:04.747Z,99451.86
2018-12-01T14:36:32.555Z,99448.11
2018-12-01T14:38:59.958Z,99447.18
2018-12-01T14:41:27.263Z,99449.13
2018-12-01T14:43:55.867Z,99447.09
2018-12-01T14:46:23.756Z,99445.66
2018-12-01T14:48:51.584Z,99444.95
2018-12-01T14:51:19.377Z,99432.63
2018-12-01T14:53:46.804Z,99435.64
2018-12-01T14:56:14.159Z,99435.14
2018-12-01T14:58:42.739Z,99423.68
2018-12-01T15:01:10.089Z,99430.17
2018-12-01T15:03:37.394Z,99424.86
2018-12-01T15:06:05.489Z,99426.57
2018-12-01T15:08:32.900Z,99420.75
2018-12-01T15:11:01.307Z,99413.63
2018-12-01T15:13:30.712Z,99411.44
2018-12-01T15:15:58.056Z,99405.77
2018-12-01T15:18:25.375Z,99399.40
2018-12-01T15:20:55.406Z,99399.75
2018-12-01T15:23:22.724Z,99404.20
2018-12-01T15:25:52.523Z,99402.05
2018-12-01T15:28:23.822Z,99400.22
2018-12-01T15:30:55.559Z,99390.09
2018-12-01T15:33:22.918Z,99390.44
2018-12-01T15:35:52.323Z,99384.97
2018-12-01T15:38:20.313Z,99391.50
2018-12-01T15:40:48.604Z,99389.34
2018-12-01T15:43:17.076Z,99391.50
2018-12-01T15:45:43.812Z,99384.27
2018-12-01T15:48:11.353Z,99383.44
2018-12-01T15:50:39.864Z,99389.70
2018-12-01T15:53:07.906Z,99390.69
2018-12-01T15:55:35.248Z,99390.33
2018-12-01T15:58:04.187Z,99390.48
2018-12-01T16:00:31.520Z,99378.99
2018-12-01T16:02:58.860Z,99371.48
2018-12-01T16:05:26.616Z,99370.78
2018-12-01T16:07:53.944Z,99359.80
2018-12-01T16:10:21.244Z,99350.61
2018-12-01T16:12:49.016Z,99344.59
2018-12-01T16:15:16.493Z,99344.25
2018-12-01T16:17:43.847Z,99343.55
2018-12-01T16:20:12.099Z,99341.48
2018-12-01T16:22:39.423Z,99339.80
2018-12-01T16:25:07.316Z,99337.30
2018-12-01T16:27:36.520Z,99336.78
2018-12-01T16:30:03.999Z,99334.75
2018-12-01T16:32:31.289Z,99330.77
2018-12-01T16:34:59.260Z,99320.77
2018-12-01T16:37:26.632Z,99327.41
2018-12-01T16:39:53.990Z,99330.31
2018-12-01T16:42:21.687Z,99330.08
2018-12-01T16:44:49.004Z,99323.23
2018-12-01T16:47:16.325Z,99325.16
2018-12-01T16:49:44.095Z,99316.13
2018-12-01T16:52:11.449Z,99313.23
2018-12-01T16:54:38.754Z,99317.23
2018-12-01T16:57:07.218Z,99303.01
2018-12-01T16:59:34.498Z,99303.63
2018-12-01T17:02:02.596Z,99298.56
2018-12-01T17:04:30.311Z,99314.50
2018-12-01T17:06:57.741Z,99313.67
2018-12-01T17:09:25.320Z,99318.48
2018-12-01T17:11:54.037Z,99315.83
2018-12-01T17:14:22.076Z,99302.89
2018-12-01T17:16:50.315Z,99301.22
2018-12-01T17:19:18.839Z,99306.87
2018-12-01T17:21:46.270Z,99301.09
2018-12-01T17:24:14.264Z,99296.25
2018-12-01T17:26:41.876Z,99288.28
2018-12-01T17:29:09.167Z,99275.50
2018-12-01T17:31:36.477Z,99279.48
2018-12-01T17:34:04.280Z,99277.66
2018-12-01T17:36:31.576Z,99273.31
2018-12-01T17:38:58.923Z,99277.45
2018-12-01T17:41:26.708Z,99267.30
2018-12-01T17:43:55.625Z,99256.33
2018-12-01T17:46:22.933Z,99246.67
2018-12-01T17:48:50.709Z,99247.66
2018-12-01T17:51:18.113Z,99247.77
2018-12-01T17:53:45.416Z,99239.45
2018-12-01T17:56:12.801Z,99229.65
2018-12-01T17:58:40.440Z,99235.70
2018-12-01T18:01:08.126Z,99219.76
2018-12-01T18:03:35.502Z,99221.28
2018-12-01T18:06:02.855Z,99210.18
2018-12-01T18:08:30.741Z,99207.05
2018-12-01T18:10:58.323Z,99193.77
2018-12-01T18:13:25.665Z,99165.88
2018-12-01T18:15:53.280Z,99169.86
2018-12-01T18:18:20.611Z,99162.02
2018-12-01T18:20:47.939Z,99161.03
2018-12-01T18:23:15.773Z,99155.25
2018-12-01T18:25:43.686Z,99142.44
2018-12-01T18:28:11.008Z,99155.72
2018-12-01T18:30:38.690Z,99141.11
2018-12-01T18:33:05.970Z,99133.61
2018-12-01T18:35:33.337Z,99135.80
2018-12-01T18:38:01.053Z,99123.84
2018-12-01T18:40:28.635Z,99135.32
2018-12-01T18:42:56.813Z,99121.06
2018-12-01T18:45:24.623Z,99124.19
2018-12-01T18:47:51.964Z,99105.59
2018-12-01T18:50:19.309Z,99115.87
2018-12-01T18:52:47.823Z,99111.19
2018-12-01T18:55:16.494Z,99102.02
2018-12-01T18:57:44.601Z,99106.00
2018-12-01T19:00:13.735Z,99101.66
2018-12-01T19:02:41.288Z,99106.12
2018-12-01T19:05:08.672Z,99090.69
2018-12-01T19:07:36.601Z,99081.05
2018-12-01T19:10:04.835Z,99073.20
2018-12-01T19:12:34.450Z,99075.98
2018-12-01T19:15:02.156Z,99083.25
2018-12-01T19:17:30.063Z,99068.07
2018-12-01T19:19:58.032Z,99061.20
2018-12-01T19:22:25.739Z,99057.35
2018-12-01T19:24:53.067Z,99051.69
2018-12-01T19:27:20.459Z,99041.70
2018-12-01T19:29:48.282Z,99030.73
2018-12-01T19:32:16.651Z,99026.23
2018-12-01T19:34:46.658Z,99023.73
2018-12-01T19:37:15.032Z,99008.06
2018-12-01T19:39:42.332Z,99029.80
2018-12-01T19:42:11.740Z,99014.85
2018-12-01T19:44:39.510Z,99008.34
2018-12-01T19:47:06.793Z,99008.81
2018-12-01T19:49:34.143Z,98999.52
2018-12-01T19:52:02.929Z,99004.64
2018-12-01T19:54:31.183Z,98994.84
2018-12-01T19:56:58.471Z,98996.67
2018-12-01T19:59:26.557Z,98984.22
2018-12-01T20:01:54.025Z,98978.44
2018-12-01T20:04:21.432Z,98985.08
2018-12-01T20:06:49.162Z,98986.75
2018-12-01T20:09:17.318Z,98972.15
2018-12-01T20:11:44.659Z,98958.52
2018-12-01T20:14:14.576Z,98978.56
2018-12-01T20:16:45.416Z,98960.95
2018-12-01T20:19:12.793Z,98955.77
2018-12-01T20:21:40.548Z,98954.23
2018-12-01T20:24:08.791Z,98967.16
2018-12-01T20:26:39.802Z,98954.38
2018-12-01T20:29:07.724Z,98953.88
2018-12-01T20:31:36.004Z,98953.41
2018-12-01T20:34:03.366Z,98955.55
2018-12-01T20:36:31.639Z,98951.09
2018-12-01T20:38:59.942Z,98953.28
2018-12-01T20:41:27.309Z,98956.75
2018-12-01T20:43:57.327Z,98939.63
2018-12-01T20:46:24.692Z,98948.85
2018-12-01T20:48:52.794Z,98939.22
2018-12-01T20:51:20.578Z,98957.64
2018-12-01T20:53:48.750Z,98952.71
2018-12-01T20:56:16.148Z,98950.81
2018-12-01T20:58:46.015Z,98959.53
2018-12-01T21:01:13.346Z,98944.71
2018-12-01T21:03:41.398Z,98935.08
2018-12-01T21:06:13.086Z,98938.70
2018-12-01T21:08:40.638Z,98928.44
2018-12-01T21:11:09.713Z,98923.32
2018-12-01T21:13:37.867Z,98921.73
2018-12-01T21:16:09.488Z,98927.74
2018-12-01T21:18:37.618Z,98917.47
2018-12-01T21:21:06.017Z,98922.53
2018-12-01T21:23:33.334Z,98923.57
2018-12-01T21:26:01.533Z,98929.23
2018-12-01T21:28:29.316Z,98906.66
2018-12-01T21:30:56.660Z,98900.88
2018-12-01T21:33:26.784Z,98896.55
2018-12-01T21:35:54.476Z,98895.34
2018-12-01T21:38:22.722Z,98895.98
2018-12-01T21:40:50.069Z,98893.92
2018-12-01T21:43:19.465Z,98874.02
2018-12-01T21:45:46.825Z,98898.41
2018-12-01T21:48:16.643Z,98898.41
2018-12-01T21:50:44.797Z,98873.67
2018-12-01T21:53:12.088Z,98883.59
2018-12-01T21:55:39.443Z,98881.58
2018-12-01T21:58:07.070Z,98862.91
2018-12-01T22:00:35.035Z,98857.03
2018-12-01T22:03:02.950Z,98867.99
2018-12-01T22:05:30.652Z,98865.72
2018-12-01T22:07:57.970Z,98864.39
2018-12-01T22:10:26.621Z,98867.30
2018-12-01T22:12:54.294Z,98866.83
2018-12-01T22:15:22.614Z,98864.77
2018-12-01T22:17:50.784Z,98874.06
2018-12-01T22:20:19.939Z,98864.02
2018-12-01T22:22:47.493Z,98863.53
2018-12-01T22:25:14.823Z,98867.52
2018-12-01T22:27:43.072Z,98865.91
2018-12-01T22:30:10.351Z,98878.20
2018-12-01T22:32:38.305Z,98868.02
2018-12-01T22:35:05.982Z,98884.03
2018-12-01T22:37:33.292Z,98874.96
2018-12-01T22:40:01.453Z,98878.14
2018-12-01T22:42:29.151Z,98883.55
2018-12-01T22:44:56.551Z,98884.23
2018-12-01T22:47:23.891Z,98881.92
2018-12-01T22:49:52.268Z,98866.98
2018-12-01T22:52:19.572Z,98877.12
2018-12-01T22:54:46.914Z,98858.19
2018-12-01T22:57:14.208Z,98864.74
2018-12-01T22:59:42.209Z,98877.89
2018-12-01T23:02:10.716Z,98866.63
2018-12-01T23:04:38.996Z,98865.17
2018-12-01T23:07:06.343Z,98854.69
2018-12-01T23:09:34.928Z,98840.59
2018-12-01T23:12:02.333Z,98853.36
2018-12-01T23:14:29.747Z,98840.72
2018-12-01T23:16:57.945Z,98840.72
2018-12-01T23:19:26.753Z,98844.57
2018-12-01T23:21:54.259Z,98849.87
2018-12-01T23:24:21.990Z,98842.27
2018-12-01T23:26:50.064Z,98845.13
2018-12-01T23:29:17.388Z,98844.63
2018-12-01T23:31:46.198Z,98856.79
2018-12-01T23:34:14.175Z,98841.55
2018-12-01T23:36:41.462Z,98842.61
2018-12-01T23:39:09.141Z,98853.29
2018-12-01T23:41:36.495Z,98838.42
2018-12-01T23:44:03.802Z,98835.13
2018-12-01T23:46:31.480Z,98834.02
2018-12-01T23:48:58.812Z,98819.11
2018-12-01T23:51:26.315Z,98828.61
2018-12-01T23:53:54.039Z,98813.71
2018-12-01T23:56:21.330Z,98824.55
2018-12-01T23:58:48.623Z,98811.13
